sensor_id;sensor_type;location;lat;lon;timestamp;temperature;humidity
28358;DHT22;15605;48.114;11.522;2024-01-15T11:43:32;8.20;50.30
28358;DHT22;15605;48.114;11.522;2024-01-15T11:46:13;8.20;50.30
28358;DHT22;15605;48.114;11.522;2024-01-15T11:52:05;8.20;50.50
28358;DHT22;15605;48.114;11.522;2024-01-15T12:02:19;8.30;50.50
28358;DHT22;15605;48.114;11.522;2024-01-15T12:04:54;8.30;50.30
28358;DHT22;15605;48.114;11.522;2024-01-15T12:07:27;8.30;50.30
28358;DHT22;15605;48.114;11.522;2024-01-15T12:10:08;8.30;50.20
28358;DHT22;15605;48.114;11.522;2024-01-15T12:16:30;8.30;50.10
28358;DHT22;15605;48.114;11.522;2024-01-15T12:19:04;8.30;50.10
28358;DHT22;15605;48.114;11.522;2024-01-15T12:25:10;8.30;50.10
28358;DHT22;15605;48.114;11.522;2024-01-15T12:27:46;8.30;50.10
28358;DHT22;15605;48.114;11.522;2024-01-15T12:30:18;8.30;50.20
28358;DHT22;15605;48.114;11.522;2024-01-15T12:32:57;8.30;50.30
28358;DHT22;15605;48.114;11.522;2024-01-15T12:35:29;8.30;50.30
28358;DHT22;15605;48.114;11.522;2024-01-15T12:38:03;8.30;50.20
28358;DHT22;15605;48.114;11.522;2024-01-15T12:44:22;8.30;50.30
28358;DHT22;15605;48.114;11.522;2024-01-15T12:50:16;8.30;50.30
28358;DHT22;15605;48.114;11.522;2024-01-15T12:52:47;8.30;50.30
28358;DHT22;15605;48.114;11.522;2024-01-15T12:55:22;8.30;50.20
28358;DHT22;15605;48.114;11.522;2024-01-15T12:57:55;8.30;50.20
28358;DHT22;15605;48.114;11.522;2024-01-15T13:00:28;8.30;50.30
28358;DHT22;15605;48.114;11.522;2024-01-15T13:03:04;8.30;50.30
28358;DHT22;15605;48.114;11.522;2024-01-15T13:06:06;8.30;50.30
28358;DHT22;15605;48.114;11.522;2024-01-15T13:20:00;8.30;50.70
28358;DHT22;15605;48.114;11.522;2024-01-15T13:22:34;8.20;50.70
28358;DHT22;15605;48.114;11.522;2024-01-15T13:25:08;8.30;50.70
28358;DHT22;15605;48.114;11.522;2024-01-15T13:27:43;8.30;50.60
28358;DHT22;15605;48.114;11.522;2024-01-15T13:30:38;8.30;50.70
28358;DHT22;15605;48.114;11.522;2024-01-15T13:37:12;8.20;50.90
28358;DHT22;15605;48.114;11.522;2024-01-15T13:39:45;8.20;50.90
28358;DHT22;15605;48.114;11.522;2024-01-15T13:42:15;8.30;50.80
28358;DHT22;15605;48.114;11.522;2024-01-15T13:44:48;8.30;50.90
28358;DHT22;15605;48.114;11.522;2024-01-15T13:47:19;8.30;50.90
28358;DHT22;15605;48.114;11.522;2024-01-15T13:49:52;8.30;50.90
28358;DHT22;15605;48.114;11.522;2024-01-15T13:52:26;8.30;50.80
28358;DHT22;15605;48.114;11.522;2024-01-15T13:54:59;8.30;50.90
28358;DHT22;15605;48.114;11.522;2024-01-15T13:58:01;8.30;51.00
28358;DHT22;15605;48.114;11.522;2024-01-15T14:00:37;8.30;51.00
28358;DHT22;15605;48.114;11.522;2024-01-15T14:03:10;8.30;51.00
28358;DHT22;15605;48.114;11.522;2024-01-15T14:05:41;8.20;51.00
28358;DHT22;15605;48.114;11.522;2024-01-15T14:08:13;8.20;51.20
28358;DHT22;15605;48.114;11.522;2024-01-15T14:10:47;8.20;51.20
28358;DHT22;15605;48.114;11.522;2024-01-15T14:13:17;8.20;51.30
28358;DHT22;15605;48.114;11.522;2024-01-15T14:15:54;8.20;51.30
28358;DHT22;15605;48.114;11.522;2024-01-15T14:18:29;8.20;51.40
28358;DHT22;15605;48.114;11.522;2024-01-15T14:21:04;8.20;51.40
28358;DHT22;15605;48.114;11.522;2024-01-15T14:27:01;8.20;51.50
28358;DHT22;15605;48.114;11.522;2024-01-15T14:29:36;8.20;51.50
28358;DHT22;15605;48.114;11.522;2024-01-15T14:35:57;8.20;51.50
28358;DHT22;15605;48.114;11.522;2024-01-15T14:38:29;8.20;51.50
28358;DHT22;15605;48.114;11.522;2024-01-15T14:41:02;8.20;51.50
28358;DHT22;15605;48.114;11.522;2024-01-15T14:43:37;8.20;51.50
28358;DHT22;15605;48.114;11.522;2024-01-15T14:46:11;8.20;51.50
28358;DHT22;15605;48.114;11.522;2024-01-15T14:48:49;8.20;51.50
28358;DHT22;15605;48.114;11.522;2024-01-15T14:51:25;8.20;51.40
28358;DHT22;15605;48.114;11.522;2024-01-15T14:54:04;8.30;51.50
28358;DHT22;15605;48.114;11.522;2024-01-15T14:56:42;8.30;51.50
28358;DHT22;15605;48.114;11.522;2024-01-15T14:59:19;8.30;51.40
28358;DHT22;15605;48.114;11.522;2024-01-15T15:01:50;8.40;51.50
28358;DHT22;15605;48.114;11.522;2024-01-15T15:04:25;8.40;51.40
28358;DHT22;15605;48.114;11.522;2024-01-15T15:07:06;8.30;51.60
28358;DHT22;15605;48.114;11.522;2024-01-15T15:09:38;8.30;51.50
28358;DHT22;15605;48.114;11.522;2024-01-15T15:16:07;8.40;51.50
28358;DHT22;15605;48.114;11.522;2024-01-15T15:18:42;8.40;51.50
28358;DHT22;15605;48.114;11.522;2024-01-15T15:21:48;8.30;51.40
28358;DHT22;15605;48.114;11.522;2024-01-15T15:27:58;8.40;51.60
28358;DHT22;15605;48.114;11.522;2024-01-15T15:30:30;8.40;51.60
28358;DHT22;15605;48.114;11.522;2024-01-15T15:33:05;8.40;51.60
28358;DHT22;15605;48.114;11.522;2024-01-15T15:35:40;8.30;51.60
28358;DHT22;15605;48.114;11.522;2024-01-15T15:38:17;8.40;51.70
28358;DHT22;15605;48.114;11.522;2024-01-15T15:40:57;8.30;51.70
28358;DHT22;15605;48.114;11.522;2024-01-15T15:43:32;8.30;51.70
28358;DHT22;15605;48.114;11.522;2024-01-15T15:46:24;8.30;51.80
28358;DHT22;15605;48.114;11.522;2024-01-15T15:48:58;8.30;51.80
28358;DHT22;15605;48.114;11.522;2024-01-15T15:51:35;8.40;51.70
28358;DHT22;15605;48.114;11.522;2024-01-15T15:54:12;8.40;51.80
28358;DHT22;15605;48.114;11.522;2024-01-15T15:56:54;8.30;51.70
28358;DHT22;15605;48.114;11.522;2024-01-15T15:59:27;8.40;51.70
28358;DHT22;15605;48.114;11.522;2024-01-15T16:02:04;8.40;51.70
28358;DHT22;15605;48.114;11.522;2024-01-15T16:04:35;8.40;51.80
28358;DHT22;15605;48.114;11.522;2024-01-15T16:07:08;8.30;51.80
28358;DHT22;15605;48.114;11.522;2024-01-15T16:09:40;8.30;52.00
28358;DHT22;15605;48.114;11.522;2024-01-15T16:12:13;8.30;52.00
28358;DHT22;15605;48.114;11.522;2024-01-15T16:14:45;8.30;52.10
28358;DHT22;15605;48.114;11.522;2024-01-15T16:17:17;8.30;52.20
28358;DHT22;15605;48.114;11.522;2024-01-15T16:19:47;8.30;52.30
28358;DHT22;15605;48.114;11.522;2024-01-15T16:22:20;8.20;52.30
28358;DHT22;15605;48.114;11.522;2024-01-15T16:25:02;8.30;52.30
28358;DHT22;15605;48.114;11.522;2024-01-15T16:27:37;8.30;52.30
28358;DHT22;15605;48.114;11.522;2024-01-15T16:30:21;8.30;52.40
28358;DHT22;15605;48.114;11.522;2024-01-15T16:33:00;8.30;52.40
28358;DHT22;15605;48.114;11.522;2024-01-15T16:35:36;8.30;52.50
28358;DHT22;15605;48.114;11.522;2024-01-15T16:38:10;8.30;52.50
28358;DHT22;15605;48.114;11.522;2024-01-15T16:40:44;8.30;53.20
28358;DHT22;15605;48.114;11.522;2024-01-15T16:43:16;8.30;52.80
28358;DHT22;15605;48.114;11.522;2024-01-15T16:45:50;8.20;53.00
28358;DHT22;15605;48.114;11.522;2024-01-15T16:48:24;8.20;53.10
28358;DHT22;15605;48.114;11.522;2024-01-15T16:50:57;8.20;53.20
28358;DHT22;15605;48.114;11.522;2024-01-15T16:53:34;8.20;53.50
28358;DHT22;15605;48.114;11.522;2024-01-15T16:56:16;8.20;53.50
28358;DHT22;15605;48.114;11.522;2024-01-15T16:58:57;8.20;53.60
28358;DHT22;15605;48.114;11.522;2024-01-15T17:01:40;8.20;53.70
28358;DHT22;15605;48.114;11.522;2024-01-15T17:04:12;8.20;53.90
28358;DHT22;15605;48.114;11.522;2024-01-15T17:06:53;8.20;54.00
28358;DHT22;15605;48.114;11.522;2024-01-15T17:09:27;8.20;54.10
28358;DHT22;15605;48.114;11.522;2024-01-15T17:12:08;8.20;54.30
28358;DHT22;15605;48.114;11.522;2024-01-15T17:14:52;8.10;54.40
28358;DHT22;15605;48.114;11.522;2024-01-15T17:17:28;8.10;54.50
28358;DHT22;15605;48.114;11.522;2024-01-15T17:20:06;8.10;54.60
28358;DHT22;15605;48.114;11.522;2024-01-15T17:22:48;8.20;54.70
28358;DHT22;15605;48.114;11.522;2024-01-15T17:25:29;8.20;54.60
28358;DHT22;15605;48.114;11.522;2024-01-15T17:28:10;8.20;54.60
28358;DHT22;15605;48.114;11.522;2024-01-15T17:30:44;8.20;54.70
28358;DHT22;15605;48.114;11.522;2024-01-15T17:33:24;8.20;54.80
28358;DHT22;15605;48.114;11.522;2024-01-15T17:36:05;8.20;54.80
28358;DHT22;15605;48.114;11.522;2024-01-15T17:39:07;8.30;54.90
28358;DHT22;15605;48.114;11.522;2024-01-15T17:41:56;8.20;54.80
28358;DHT22;15605;48.114;11.522;2024-01-15T17:44:31;8.30;55.00
28358;DHT22;15605;48.114;11.522;2024-01-15T17:47:09;8.30;55.10
28358;DHT22;15605;48.114;11.522;2024-01-15T17:49:40;8.30;55.10
28358;DHT22;15605;48.114;11.522;2024-01-15T17:52:09;8.30;55.20
28358;DHT22;15605;48.114;11.522;2024-01-15T17:54:40;8.30;55.30
28358;DHT22;15605;48.114;11.522;2024-01-15T17:57:10;8.30;55.30
28358;DHT22;15605;48.114;11.522;2024-01-15T17:59:42;8.30;55.20
28358;DHT22;15605;48.114;11.522;2024-01-15T18:02:14;8.30;55.10
28358;DHT22;15605;48.114;11.522;2024-01-15T18:04:45;8.20;55.00
28358;DHT22;15605;48.114;11.522;2024-01-15T18:07:17;8.30;54.90
28358;DHT22;15605;48.114;11.522;2024-01-15T18:09:56;8.30;54.90
28358;DHT22;15605;48.114;11.522;2024-01-15T18:12:32;8.20;54.80
28358;DHT22;15605;48.114;11.522;2024-01-15T18:15:07;8.20;54.80
28358;DHT22;15605;48.114;11.522;2024-01-15T18:17:37;8.20;54.80
28358;DHT22;15605;48.114;11.522;2024-01-15T18:20:10;8.20;54.80
28358;DHT22;15605;48.114;11.522;2024-01-15T18:22:45;8.20;54.80
28358;DHT22;15605;48.114;11.522;2024-01-15T18:25:24;8.20;54.70
28358;DHT22;15605;48.114;11.522;2024-01-15T18:28:03;8.20;54.70
28358;DHT22;15605;48.114;11.522;2024-01-15T18:30:39;8.20;54.60
28358;DHT22;15605;48.114;11.522;2024-01-15T18:33:10;8.20;54.50
28358;DHT22;15605;48.114;11.522;2024-01-15T18:35:44;8.20;54.60
28358;DHT22;15605;48.114;11.522;2024-01-15T18:38:15;8.20;54.50
28358;DHT22;15605;48.114;11.522;2024-01-15T18:40:48;8.20;54.40
28358;DHT22;15605;48.114;11.522;2024-01-15T18:43:19;8.20;54.40
28358;DHT22;15605;48.114;11.522;2024-01-15T18:45:53;8.10;54.40
28358;DHT22;15605;48.114;11.522;2024-01-15T18:48:27;8.10;54.50
28358;DHT22;15605;48.114;11.522;2024-01-15T18:51:01;8.10;54.40
28358;DHT22;15605;48.114;11.522;2024-01-15T18:53:42;8.10;54.30
28358;DHT22;15605;48.114;11.522;2024-01-15T18:56:19;8.10;54.30
28358;DHT22;15605;48.114;11.522;2024-01-15T18:58:56;8.10;54.20
28358;DHT22;15605;48.114;11.522;2024-01-15T19:01:32;8.10;54.10
28358;DHT22;15605;48.114;11.522;2024-01-15T19:04:08;8.10;54.00
28358;DHT22;15605;48.114;11.522;2024-01-15T19:06:42;8.10;53.90
28358;DHT22;15605;48.114;11.522;2024-01-15T19:09:14;8.10;54.30
28358;DHT22;15605;48.114;11.522;2024-01-15T19:11:47;8.10;53.50
28358;DHT22;15605;48.114;11.522;2024-01-15T19:14:19;8.10;53.40
28358;DHT22;15605;48.114;11.522;2024-01-15T19:16:52;8.10;53.40
28358;DHT22;15605;48.114;11.522;2024-01-15T19:19:30;8.10;53.20
28358;DHT22;15605;48.114;11.522;2024-01-15T19:22:14;8.10;53.70
28358;DHT22;15605;48.114;11.522;2024-01-15T19:25:02;8.20;52.90
28358;DHT22;15605;48.114;11.522;2024-01-15T19:27:41;8.10;52.80
28358;DHT22;15605;48.114;11.522;2024-01-15T19:30:19;8.20;52.60
28358;DHT22;15605;48.114;11.522;2024-01-15T19:33:04;8.20;52.40
28358;DHT22;15605;48.114;11.522;2024-01-15T19:35:38;8.20;52.30
28358;DHT22;15605;48.114;11.522;2024-01-15T19:38:19;8.10;52.10
28358;DHT22;15605;48.114;11.522;2024-01-15T19:41:04;8.10;52.10
28358;DHT22;15605;48.114;11.522;2024-01-15T19:43:37;8.20;52.00
28358;DHT22;15605;48.114;11.522;2024-01-15T19:46:32;8.20;51.80
28358;DHT22;15605;48.114;11.522;2024-01-15T19:49:27;8.10;51.70
28358;DHT22;15605;48.114;11.522;2024-01-15T19:52:06;8.10;51.60
28358;DHT22;15605;48.114;11.522;2024-01-15T19:54:48;8.10;51.70
28358;DHT22;15605;48.114;11.522;2024-01-15T19:57:25;8.10;51.60
28358;DHT22;15605;48.114;11.522;2024-01-15T20:00:10;8.00;51.60
28358;DHT22;15605;48.114;11.522;2024-01-15T20:02:59;8.00;51.50
28358;DHT22;15605;48.114;11.522;2024-01-15T20:05:37;8.00;51.50
28358;DHT22;15605;48.114;11.522;2024-01-15T20:08:18;8.00;51.50
28358;DHT22;15605;48.114;11.522;2024-01-15T20:10:50;8.00;51.40
28358;DHT22;15605;48.114;11.522;2024-01-15T20:13:24;8.10;51.30
28358;DHT22;15605;48.114;11.522;2024-01-15T20:15:58;8.10;51.10
28358;DHT22;15605;48.114;11.522;2024-01-15T20:18:34;8.10;51.00
28358;DHT22;15605;48.114;11.522;2024-01-15T20:21:09;8.10;50.90
28358;DHT22;15605;48.114;11.522;2024-01-15T20:23:46;8.10;50.70
28358;DHT22;15605;48.114;11.522;2024-01-15T20:26:20;8.10;50.50
28358;DHT22;15605;48.114;11.522;2024-01-15T20:28:52;8.10;50.40
28358;DHT22;15605;48.114;11.522;2024-01-15T20:31:33;8.20;50.30
28358;DHT22;15605;48.114;11.522;2024-01-15T20:34:08;8.10;50.10
28358;DHT22;15605;48.114;11.522;2024-01-15T20:36:45;8.10;50.10
28358;DHT22;15605;48.114;11.522;2024-01-15T20:39:24;8.10;50.10
28358;DHT22;15605;48.114;11.522;2024-01-15T20:41:59;8.10;50.10
28358;DHT22;15605;48.114;11.522;2024-01-15T20:44:32;8.00;50.00
28358;DHT22;15605;48.114;11.522;2024-01-15T20:47:06;8.00;49.90
28358;DHT22;15605;48.114;11.522;2024-01-15T20:49:43;8.10;50.00
28358;DHT22;15605;48.114;11.522;2024-01-15T20:52:18;8.00;49.80
28358;DHT22;15605;48.114;11.522;2024-01-15T20:54:51;8.00;49.80
28358;DHT22;15605;48.114;11.522;2024-01-15T20:57:24;8.00;49.80
28358;DHT22;15605;48.114;11.522;2024-01-15T20:59:56;8.00;49.80
28358;DHT22;15605;48.114;11.522;2024-01-15T21:02:29;8.00;49.70
28358;DHT22;15605;48.114;11.522;2024-01-15T21:05:01;8.00;49.60
28358;DHT22;15605;48.114;11.522;2024-01-15T21:07:32;8.00;49.60
28358;DHT22;15605;48.114;11.522;2024-01-15T21:10:04;7.90;49.60
28358;DHT22;15605;48.114;11.522;2024-01-15T21:12:38;8.00;49.60
28358;DHT22;15605;48.114;11.522;2024-01-15T21:15:11;8.00;49.60
28358;DHT22;15605;48.114;11.522;2024-01-15T21:17:41;7.90;49.50
28358;DHT22;15605;48.114;11.522;2024-01-15T21:20:17;7.90;49.50
28358;DHT22;15605;48.114;11.522;2024-01-15T21:22:49;7.90;49.60
28358;DHT22;15605;48.114;11.522;2024-01-15T21:25:21;7.90;49.60
28358;DHT22;15605;48.114;11.522;2024-01-15T21:27:53;7.90;49.60
28358;DHT22;15605;48.114;11.522;2024-01-15T21:30:26;7.90;49.50
28358;DHT22;15605;48.114;11.522;2024-01-15T21:32:58;7.90;49.30
28358;DHT22;15605;48.114;11.522;2024-01-15T21:35:31;7.90;49.30
28358;DHT22;15605;48.114;11.522;2024-01-15T21:38:02;8.00;49.30
28358;DHT22;15605;48.114;11.522;2024-01-15T21:40:34;8.00;49.20
28358;DHT22;15605;48.114;11.522;2024-01-15T21:43:06;8.00;49.10
28358;DHT22;15605;48.114;11.522;2024-01-15T21:45:47;7.90;49.00
28358;DHT22;15605;48.114;11.522;2024-01-15T21:48:20;8.00;49.00
28358;DHT22;15605;48.114;11.522;2024-01-15T21:50:51;7.90;49.00
28358;DHT22;15605;48.114;11.522;2024-01-15T21:53:23;7.90;49.00
28358;DHT22;15605;48.114;11.522;2024-01-15T21:55:55;7.90;49.00
28358;DHT22;15605;48.114;11.522;2024-01-15T21:58:26;7.90;48.90
28358;DHT22;15605;48.114;11.522;2024-01-15T22:00:59;7.90;49.50
28358;DHT22;15605;48.114;11.522;2024-01-15T22:03:31;7.90;48.90
28358;DHT22;15605;48.114;11.522;2024-01-15T22:06:04;7.90;48.70
28358;DHT22;15605;48.114;11.522;2024-01-15T22:08:37;7.90;48.70
28358;DHT22;15605;48.114;11.522;2024-01-15T22:11:14;7.90;48.70
28358;DHT22;15605;48.114;11.522;2024-01-15T22:13:49;7.80;48.70
28358;DHT22;15605;48.114;11.522;2024-01-15T22:16:21;7.90;48.60
28358;DHT22;15605;48.114;11.522;2024-01-15T22:18:55;7.90;48.60
28358;DHT22;15605;48.114;11.522;2024-01-15T22:21:29;7.80;48.50
28358;DHT22;15605;48.114;11.522;2024-01-15T22:24:04;7.90;48.50
28358;DHT22;15605;48.114;11.522;2024-01-15T22:26:37;7.80;48.40
28358;DHT22;15605;48.114;11.522;2024-01-15T22:29:09;7.80;48.40
28358;DHT22;15605;48.114;11.522;2024-01-15T22:31:41;7.90;48.30
28358;DHT22;15605;48.114;11.522;2024-01-15T22:34:14;7.90;48.30
28358;DHT22;15605;48.114;11.522;2024-01-15T22:36:48;7.80;48.30
28358;DHT22;15605;48.114;11.522;2024-01-15T22:39:19;7.80;48.30
28358;DHT22;15605;48.114;11.522;2024-01-15T22:41:52;7.80;48.30
28358;DHT22;15605;48.114;11.522;2024-01-15T22:44:23;7.80;48.40
28358;DHT22;15605;48.114;11.522;2024-01-15T22:46:55;7.80;48.30
28358;DHT22;15605;48.114;11.522;2024-01-15T22:49:30;7.80;48.30
28358;DHT22;15605;48.114;11.522;2024-01-15T22:52:01;7.90;48.20
28358;DHT22;15605;48.114;11.522;2024-01-15T22:54:35;7.90;48.20
28358;DHT22;15605;48.114;11.522;2024-01-15T22:57:10;7.90;48.10
28358;DHT22;15605;48.114;11.522;2024-01-15T22:59:43;7.90;48.10
28358;DHT22;15605;48.114;11.522;2024-01-15T23:02:18;7.80;48.10
28358;DHT22;15605;48.114;11.522;2024-01-15T23:04:52;7.80;48.10
28358;DHT22;15605;48.114;11.522;2024-01-15T23:07:26;7.80;48.00
28358;DHT22;15605;48.114;11.522;2024-01-15T23:10:00;7.80;48.00
28358;DHT22;15605;48.114;11.522;2024-01-15T23:12:35;7.90;48.00
28358;DHT22;15605;48.114;11.522;2024-01-15T23:15:08;7.90;48.00
28358;DHT22;15605;48.114;11.522;2024-01-15T23:17:43;7.80;47.90
28358;DHT22;15605;48.114;11.522;2024-01-15T23:20:19;7.90;47.90
28358;DHT22;15605;48.114;11.522;2024-01-15T23:23:03;7.90;48.00
28358;DHT22;15605;48.114;11.522;2024-01-15T23:25:36;7.80;47.90
28358;DHT22;15605;48.114;11.522;2024-01-15T23:28:09;7.80;47.90
28358;DHT22;15605;48.114;11.522;2024-01-15T23:30:44;7.80;47.80
28358;DHT22;15605;48.114;11.522;2024-01-15T23:33:25;7.80;47.80
28358;DHT22;15605;48.114;11.522;2024-01-15T23:36:12;7.80;47.60
28358;DHT22;15605;48.114;11.522;2024-01-15T23:38:47;7.90;47.70
28358;DHT22;15605;48.114;11.522;2024-01-15T23:41:25;7.90;47.50
28358;DHT22;15605;48.114;11.522;2024-01-15T23:44:01;7.90;47.50
28358;DHT22;15605;48.114;11.522;2024-01-15T23:46:34;7.90;47.40
28358;DHT22;15605;48.114;11.522;2024-01-15T23:49:07;7.90;47.40
28358;DHT22;15605;48.114;11.522;2024-01-15T23:51:42;7.90;47.30
28358;DHT22;15605;48.114;11.522;2024-01-15T23:54:15;7.90;47.30
28358;DHT22;15605;48.114;11.522;2024-01-15T23:56:53;7.80;47.30
28358;DHT22;15605;48.114;11.522;2024-01-15T23:59:26;7.80;47.20
